sensor_id;sensor_type;location;lat;lon;timestamp;P1;durP1;ratioP1;P2;durP2;ratioP2
40198;SDS011;25906;43.536;26.068;2023-12-20T00:01:39;10.30;;;6.32;;
40198;SDS011;25906;43.536;26.068;2023-12-20T00:04:24;13.18;;;7.03;;
40198;SDS011;25906;43.536;26.068;2023-12-20T00:07:10;14.98;;;7.22;;
40198;SDS011;25906;43.536;26.068;2023-12-20T00:09:55;14.10;;;7.75;;
40198;SDS011;25906;43.536;26.068;2023-12-20T00:12:41;16.30;;;8.93;;
40198;SDS011;25906;43.536;26.068;2023-12-20T00:15:26;17.17;;;9.98;;
40198;SDS011;25906;43.536;26.068;2023-12-20T00:18:12;18.30;;;9.98;;
40198;SDS011;25906;43.536;26.068;2023-12-20T00:20:57;17.45;;;10.20;;
40198;SDS011;25906;43.536;26.068;2023-12-20T00:23:44;20.02;;;9.40;;
40198;SDS011;25906;43.536;26.068;2023-12-20T00:26:29;21.65;;;9.43;;
40198;SDS011;25906;43.536;26.068;2023-12-20T00:29:15;14.35;;;8.68;;
40198;SDS011;25906;43.536;26.068;2023-12-20T00:32:00;18.13;;;9.25;;
40198;SDS011;25906;43.536;26.068;2023-12-20T00:34:45;18.95;;;9.90;;
40198;SDS011;25906;43.536;26.068;2023-12-20T00:37:31;18.25;;;9.80;;
40198;SDS011;25906;43.536;26.068;2023-12-20T00:40:17;17.90;;;9.02;;
40198;SDS011;25906;43.536;26.068;2023-12-20T00:43:02;13.73;;;8.20;;
40198;SDS011;25906;43.536;26.068;2023-12-20T00:45:48;14.75;;;8.55;;
40198;SDS011;25906;43.536;26.068;2023-12-20T00:48:33;16.98;;;8.63;;
40198;SDS011;25906;43.536;26.068;2023-12-20T00:51:19;14.63;;;7.88;;
40198;SDS011;25906;43.536;26.068;2023-12-20T00:54:04;17.10;;;9.15;;
40198;SDS011;25906;43.536;26.068;2023-12-20T00:56:50;15.27;;;8.02;;
40198;SDS011;25906;43.536;26.068;2023-12-20T00:59:35;15.25;;;8.57;;
40198;SDS011;25906;43.536;26.068;2023-12-20T01:02:21;14.10;;;8.13;;
40198;SDS011;25906;43.536;26.068;2023-12-20T01:05:06;12.23;;;7.40;;
40198;SDS011;25906;43.536;26.068;2023-12-20T01:07:54;13.35;;;7.72;;
40198;SDS011;25906;43.536;26.068;2023-12-20T01:10:39;15.93;;;8.13;;
40198;SDS011;25906;43.536;26.068;2023-12-20T01:13:25;13.10;;;7.47;;
40198;SDS011;25906;43.536;26.068;2023-12-20T01:16:11;16.45;;;8.43;;
40198;SDS011;25906;43.536;26.068;2023-12-20T01:18:57;14.43;;;7.65;;
40198;SDS011;25906;43.536;26.068;2023-12-20T01:21:42;14.02;;;8.07;;
40198;SDS011;25906;43.536;26.068;2023-12-20T01:24:28;15.20;;;8.15;;
40198;SDS011;25906;43.536;26.068;2023-12-20T01:27:14;14.80;;;7.93;;
40198;SDS011;25906;43.536;26.068;2023-12-20T01:29:59;12.82;;;7.63;;
40198;SDS011;25906;43.536;26.068;2023-12-20T01:32:45;15.98;;;8.10;;
40198;SDS011;25906;43.536;26.068;2023-12-20T01:35:31;14.25;;;8.32;;
40198;SDS011;25906;43.536;26.068;2023-12-20T01:38:16;15.38;;;8.40;;
40198;SDS011;25906;43.536;26.068;2023-12-20T01:41:03;13.25;;;7.55;;
40198;SDS011;25906;43.536;26.068;2023-12-20T01:43:49;14.38;;;8.00;;
40198;SDS011;25906;43.536;26.068;2023-12-20T01:46:35;15.43;;;8.38;;
40198;SDS011;25906;43.536;26.068;2023-12-20T01:49:21;15.88;;;8.35;;
40198;SDS011;25906;43.536;26.068;2023-12-20T01:52:08;15.27;;;8.85;;
40198;SDS011;25906;43.536;26.068;2023-12-20T01:57:46;13.40;;;7.72;;
40198;SDS011;25906;43.536;26.068;2023-12-20T02:00:32;17.33;;;8.30;;
40198;SDS011;25906;43.536;26.068;2023-12-20T02:03:18;17.42;;;9.05;;
40198;SDS011;25906;43.536;26.068;2023-12-20T02:06:04;21.02;;;9.65;;
40198;SDS011;25906;43.536;26.068;2023-12-20T02:08:50;13.80;;;7.28;;
40198;SDS011;25906;43.536;26.068;2023-12-20T02:11:35;12.40;;;6.63;;
40198;SDS011;25906;43.536;26.068;2023-12-20T02:14:21;11.50;;;6.45;;
40198;SDS011;25906;43.536;26.068;2023-12-20T02:17:06;11.55;;;6.43;;
40198;SDS011;25906;43.536;26.068;2023-12-20T02:22:37;12.77;;;7.00;;
40198;SDS011;25906;43.536;26.068;2023-12-20T02:25:23;10.30;;;5.85;;
40198;SDS011;25906;43.536;26.068;2023-12-20T02:28:08;9.88;;;5.40;;
40198;SDS011;25906;43.536;26.068;2023-12-20T02:30:54;10.27;;;6.15;;
40198;SDS011;25906;43.536;26.068;2023-12-20T02:33:39;11.20;;;6.22;;
40198;SDS011;25906;43.536;26.068;2023-12-20T02:36:27;10.35;;;5.95;;
40198;SDS011;25906;43.536;26.068;2023-12-20T02:39:12;13.88;;;5.95;;
40198;SDS011;25906;43.536;26.068;2023-12-20T02:44:43;10.65;;;5.30;;
40198;SDS011;25906;43.536;26.068;2023-12-20T02:47:29;11.07;;;5.50;;
40198;SDS011;25906;43.536;26.068;2023-12-20T02:50:15;10.13;;;5.35;;
40198;SDS011;25906;43.536;26.068;2023-12-20T02:53:00;7.78;;;4.70;;
40198;SDS011;25906;43.536;26.068;2023-12-20T02:55:45;8.20;;;4.22;;
40198;SDS011;25906;43.536;26.068;2023-12-20T02:58:31;12.32;;;5.72;;
40198;SDS011;25906;43.536;26.068;2023-12-20T03:01:16;8.75;;;5.22;;
40198;SDS011;25906;43.536;26.068;2023-12-20T03:04:02;10.02;;;5.65;;
40198;SDS011;25906;43.536;26.068;2023-12-20T03:06:47;7.75;;;4.75;;
40198;SDS011;25906;43.536;26.068;2023-12-20T03:09:33;7.22;;;4.88;;
40198;SDS011;25906;43.536;26.068;2023-12-20T03:12:18;6.97;;;5.03;;
40198;SDS011;25906;43.536;26.068;2023-12-20T03:15:04;7.82;;;4.80;;
40198;SDS011;25906;43.536;26.068;2023-12-20T03:17:49;10.25;;;5.40;;
40198;SDS011;25906;43.536;26.068;2023-12-20T03:20:35;9.98;;;5.03;;
40198;SDS011;25906;43.536;26.068;2023-12-20T03:23:20;7.07;;;4.63;;
40198;SDS011;25906;43.536;26.068;2023-12-20T03:26:09;10.05;;;4.82;;
40198;SDS011;25906;43.536;26.068;2023-12-20T03:28:55;9.25;;;4.93;;
40198;SDS011;25906;43.536;26.068;2023-12-20T03:31:40;7.32;;;4.22;;
40198;SDS011;25906;43.536;26.068;2023-12-20T03:34:26;6.72;;;4.25;;
40198;SDS011;25906;43.536;26.068;2023-12-20T03:37:11;6.78;;;4.38;;
40198;SDS011;25906;43.536;26.068;2023-12-20T03:39:57;6.45;;;4.35;;
40198;SDS011;25906;43.536;26.068;2023-12-20T03:42:42;8.80;;;4.45;;
40198;SDS011;25906;43.536;26.068;2023-12-20T03:45:28;8.30;;;4.68;;
40198;SDS011;25906;43.536;26.068;2023-12-20T03:48:13;7.90;;;4.40;;
40198;SDS011;25906;43.536;26.068;2023-12-20T03:50:58;8.55;;;4.90;;
40198;SDS011;25906;43.536;26.068;2023-12-20T03:53:44;7.15;;;4.60;;
40198;SDS011;25906;43.536;26.068;2023-12-20T03:56:30;7.93;;;4.60;;
40198;SDS011;25906;43.536;26.068;2023-12-20T03:59:15;7.20;;;4.65;;
40198;SDS011;25906;43.536;26.068;2023-12-20T04:02:01;7.70;;;4.55;;
40198;SDS011;25906;43.536;26.068;2023-12-20T04:04:47;7.05;;;4.32;;
40198;SDS011;25906;43.536;26.068;2023-12-20T04:07:32;5.20;;;3.90;;
40198;SDS011;25906;43.536;26.068;2023-12-20T04:10:19;10.68;;;4.70;;
40198;SDS011;25906;43.536;26.068;2023-12-20T04:13:04;9.48;;;4.38;;
40198;SDS011;25906;43.536;26.068;2023-12-20T04:15:50;8.40;;;4.78;;
40198;SDS011;25906;43.536;26.068;2023-12-20T04:18:36;6.70;;;3.97;;
40198;SDS011;25906;43.536;26.068;2023-12-20T04:21:22;5.32;;;3.92;;
40198;SDS011;25906;43.536;26.068;2023-12-20T04:24:07;10.07;;;5.10;;
40198;SDS011;25906;43.536;26.068;2023-12-20T04:26:53;7.05;;;4.63;;
40198;SDS011;25906;43.536;26.068;2023-12-20T04:29:39;7.13;;;3.95;;
40198;SDS011;25906;43.536;26.068;2023-12-20T04:32:24;8.40;;;4.68;;
40198;SDS011;25906;43.536;26.068;2023-12-20T04:35:09;6.13;;;3.63;;
40198;SDS011;25906;43.536;26.068;2023-12-20T04:37:55;11.45;;;3.90;;
40198;SDS011;25906;43.536;26.068;2023-12-20T04:40:40;5.85;;;3.65;;
40198;SDS011;25906;43.536;26.068;2023-12-20T04:43:26;6.85;;;3.88;;
40198;SDS011;25906;43.536;26.068;2023-12-20T04:46:11;4.72;;;3.83;;
40198;SDS011;25906;43.536;26.068;2023-12-20T04:48:57;5.90;;;3.90;;
40198;SDS011;25906;43.536;26.068;2023-12-20T04:51:42;6.53;;;4.47;;
40198;SDS011;25906;43.536;26.068;2023-12-20T04:54:28;7.18;;;3.70;;
40198;SDS011;25906;43.536;26.068;2023-12-20T04:57:13;7.18;;;4.10;;
40198;SDS011;25906;43.536;26.068;2023-12-20T04:59:59;6.57;;;3.97;;
40198;SDS011;25906;43.536;26.068;2023-12-20T05:02:44;5.95;;;4.05;;
40198;SDS011;25906;43.536;26.068;2023-12-20T05:08:15;7.80;;;3.60;;
40198;SDS011;25906;43.536;26.068;2023-12-20T05:11:02;6.00;;;3.47;;
40198;SDS011;25906;43.536;26.068;2023-12-20T05:13:48;6.28;;;3.15;;
40198;SDS011;25906;43.536;26.068;2023-12-20T05:16:34;5.32;;;3.40;;
40198;SDS011;25906;43.536;26.068;2023-12-20T05:19:19;7.25;;;4.03;;
40198;SDS011;25906;43.536;26.068;2023-12-20T05:22:04;5.88;;;3.45;;
40198;SDS011;25906;43.536;26.068;2023-12-20T05:24:50;8.30;;;4.30;;
40198;SDS011;25906;43.536;26.068;2023-12-20T05:27:35;6.57;;;4.13;;
40198;SDS011;25906;43.536;26.068;2023-12-20T05:30:21;8.05;;;4.50;;
40198;SDS011;25906;43.536;26.068;2023-12-20T05:33:06;7.80;;;4.10;;
40198;SDS011;25906;43.536;26.068;2023-12-20T05:35:52;7.53;;;4.25;;
40198;SDS011;25906;43.536;26.068;2023-12-20T05:38:37;7.55;;;4.30;;
40198;SDS011;25906;43.536;26.068;2023-12-20T05:41:23;12.98;;;4.25;;
40198;SDS011;25906;43.536;26.068;2023-12-20T05:44:08;9.23;;;4.25;;
40198;SDS011;25906;43.536;26.068;2023-12-20T05:46:54;6.78;;;4.13;;
40198;SDS011;25906;43.536;26.068;2023-12-20T05:49:39;19.33;;;6.88;;
40198;SDS011;25906;43.536;26.068;2023-12-20T05:52:24;43.63;;;15.18;;
40198;SDS011;25906;43.536;26.068;2023-12-20T05:55:10;41.00;;;15.52;;
40198;SDS011;25906;43.536;26.068;2023-12-20T05:57:55;30.50;;;13.60;;
40198;SDS011;25906;43.536;26.068;2023-12-20T06:00:41;26.80;;;11.60;;
40198;SDS011;25906;43.536;26.068;2023-12-20T06:03:26;20.55;;;9.48;;
40198;SDS011;25906;43.536;26.068;2023-12-20T06:06:12;11.35;;;6.15;;
40198;SDS011;25906;43.536;26.068;2023-12-20T06:11:43;10.40;;;5.20;;
40198;SDS011;25906;43.536;26.068;2023-12-20T06:14:28;11.82;;;6.68;;
40198;SDS011;25906;43.536;26.068;2023-12-20T06:17:15;11.70;;;6.07;;
40198;SDS011;25906;43.536;26.068;2023-12-20T06:20:01;10.10;;;4.90;;
40198;SDS011;25906;43.536;26.068;2023-12-20T06:22:48;9.48;;;4.65;;
40198;SDS011;25906;43.536;26.068;2023-12-20T06:25:34;12.45;;;4.53;;
40198;SDS011;25906;43.536;26.068;2023-12-20T06:28:19;27.90;;;5.10;;
40198;SDS011;25906;43.536;26.068;2023-12-20T06:31:05;20.98;;;5.30;;
40198;SDS011;25906;43.536;26.068;2023-12-20T06:33:50;11.63;;;5.32;;
40198;SDS011;25906;43.536;26.068;2023-12-20T06:36:42;9.80;;;4.43;;
40198;SDS011;25906;43.536;26.068;2023-12-20T06:39:27;9.02;;;5.50;;
40198;SDS011;25906;43.536;26.068;2023-12-20T06:42:14;14.55;;;6.85;;
40198;SDS011;25906;43.536;26.068;2023-12-20T06:44:59;9.90;;;5.55;;
40198;SDS011;25906;43.536;26.068;2023-12-20T06:47:45;10.35;;;4.93;;
40198;SDS011;25906;43.536;26.068;2023-12-20T06:50:30;10.00;;;4.78;;
40198;SDS011;25906;43.536;26.068;2023-12-20T06:53:16;8.45;;;4.28;;
40198;SDS011;25906;43.536;26.068;2023-12-20T06:56:01;5.68;;;3.47;;
40198;SDS011;25906;43.536;26.068;2023-12-20T06:58:47;4.60;;;3.03;;
40198;SDS011;25906;43.536;26.068;2023-12-20T07:01:33;7.65;;;3.97;;
40198;SDS011;25906;43.536;26.068;2023-12-20T07:04:19;8.32;;;4.15;;
40198;SDS011;25906;43.536;26.068;2023-12-20T07:07:06;6.90;;;3.60;;
40198;SDS011;25906;43.536;26.068;2023-12-20T07:09:52;5.88;;;3.70;;
40198;SDS011;25906;43.536;26.068;2023-12-20T07:15:23;6.15;;;4.00;;
40198;SDS011;25906;43.536;26.068;2023-12-20T07:18:09;5.20;;;3.50;;
40198;SDS011;25906;43.536;26.068;2023-12-20T07:20:54;6.60;;;3.65;;
40198;SDS011;25906;43.536;26.068;2023-12-20T07:23:40;7.88;;;4.25;;
40198;SDS011;25906;43.536;26.068;2023-12-20T07:26:27;6.78;;;3.85;;
40198;SDS011;25906;43.536;26.068;2023-12-20T07:29:12;9.65;;;5.78;;
40198;SDS011;25906;43.536;26.068;2023-12-20T07:31:58;7.63;;;4.78;;
40198;SDS011;25906;43.536;26.068;2023-12-20T07:34:43;8.57;;;5.07;;
40198;SDS011;25906;43.536;26.068;2023-12-20T07:37:29;7.60;;;3.97;;
40198;SDS011;25906;43.536;26.068;2023-12-20T07:40:14;6.93;;;4.28;;
40198;SDS011;25906;43.536;26.068;2023-12-20T07:43:02;6.25;;;4.30;;
40198;SDS011;25906;43.536;26.068;2023-12-20T07:45:48;8.23;;;4.20;;
40198;SDS011;25906;43.536;26.068;2023-12-20T07:48:36;9.82;;;4.75;;
40198;SDS011;25906;43.536;26.068;2023-12-20T07:51:22;8.30;;;4.50;;
40198;SDS011;25906;43.536;26.068;2023-12-20T07:54:07;13.23;;;5.13;;
40198;SDS011;25906;43.536;26.068;2023-12-20T07:56:53;6.70;;;4.68;;
40198;SDS011;25906;43.536;26.068;2023-12-20T07:59:38;6.60;;;4.30;;
40198;SDS011;25906;43.536;26.068;2023-12-20T08:02:24;6.43;;;4.50;;
40198;SDS011;25906;43.536;26.068;2023-12-20T08:05:09;7.15;;;4.65;;
40198;SDS011;25906;43.536;26.068;2023-12-20T08:07:55;7.78;;;4.82;;
40198;SDS011;25906;43.536;26.068;2023-12-20T08:10:40;8.52;;;5.00;;
40198;SDS011;25906;43.536;26.068;2023-12-20T08:13:26;8.75;;;5.70;;
40198;SDS011;25906;43.536;26.068;2023-12-20T08:16:12;10.88;;;5.88;;
40198;SDS011;25906;43.536;26.068;2023-12-20T08:18:58;10.60;;;5.13;;
40198;SDS011;25906;43.536;26.068;2023-12-20T08:21:43;12.10;;;5.43;;
40198;SDS011;25906;43.536;26.068;2023-12-20T08:24:29;10.35;;;5.07;;
40198;SDS011;25906;43.536;26.068;2023-12-20T08:27:15;14.52;;;6.97;;
40198;SDS011;25906;43.536;26.068;2023-12-20T08:30:00;16.20;;;8.43;;
40198;SDS011;25906;43.536;26.068;2023-12-20T08:32:45;16.75;;;9.63;;
40198;SDS011;25906;43.536;26.068;2023-12-20T08:35:31;19.02;;;9.15;;
40198;SDS011;25906;43.536;26.068;2023-12-20T08:38:16;15.43;;;7.78;;
40198;SDS011;25906;43.536;26.068;2023-12-20T08:41:02;13.85;;;7.60;;
40198;SDS011;25906;43.536;26.068;2023-12-20T08:43:50;12.45;;;7.43;;
40198;SDS011;25906;43.536;26.068;2023-12-20T08:49:21;12.82;;;6.75;;
40198;SDS011;25906;43.536;26.068;2023-12-20T08:52:07;10.52;;;6.35;;
40198;SDS011;25906;43.536;26.068;2023-12-20T08:54:52;12.60;;;7.20;;
40198;SDS011;25906;43.536;26.068;2023-12-20T08:57:38;32.20;;;13.38;;
40198;SDS011;25906;43.536;26.068;2023-12-20T09:00:24;23.13;;;11.57;;
40198;SDS011;25906;43.536;26.068;2023-12-20T09:03:12;19.00;;;10.70;;
40198;SDS011;25906;43.536;26.068;2023-12-20T09:05:57;17.52;;;9.73;;
40198;SDS011;25906;43.536;26.068;2023-12-20T09:08:43;19.90;;;9.07;;
40198;SDS011;25906;43.536;26.068;2023-12-20T09:11:28;29.55;;;10.40;;
40198;SDS011;25906;43.536;26.068;2023-12-20T09:14:14;17.10;;;8.45;;
40198;SDS011;25906;43.536;26.068;2023-12-20T09:17:00;12.90;;;7.68;;
40198;SDS011;25906;43.536;26.068;2023-12-20T09:19:46;18.33;;;8.43;;
40198;SDS011;25906;43.536;26.068;2023-12-20T09:22:31;20.33;;;10.07;;
40198;SDS011;25906;43.536;26.068;2023-12-20T09:25:17;13.27;;;8.23;;
40198;SDS011;25906;43.536;26.068;2023-12-20T09:28:02;27.25;;;8.45;;
40198;SDS011;25906;43.536;26.068;2023-12-20T09:30:48;22.20;;;12.23;;
40198;SDS011;25906;43.536;26.068;2023-12-20T09:33:33;24.05;;;12.52;;
40198;SDS011;25906;43.536;26.068;2023-12-20T09:36:20;23.38;;;11.20;;
40198;SDS011;25906;43.536;26.068;2023-12-20T09:39:05;27.08;;;12.25;;
40198;SDS011;25906;43.536;26.068;2023-12-20T09:44:47;26.83;;;12.13;;
40198;SDS011;25906;43.536;26.068;2023-12-20T09:47:32;57.45;;;23.40;;
40198;SDS011;25906;43.536;26.068;2023-12-20T09:50:18;78.63;;;32.53;;
40198;SDS011;25906;43.536;26.068;2023-12-20T09:53:05;78.38;;;32.15;;
40198;SDS011;25906;43.536;26.068;2023-12-20T09:55:54;84.90;;;33.35;;
40198;SDS011;25906;43.536;26.068;2023-12-20T09:58:43;53.70;;;21.67;;
40198;SDS011;25906;43.536;26.068;2023-12-20T10:01:29;19.83;;;11.27;;
40198;SDS011;25906;43.536;26.068;2023-12-20T10:04:16;43.15;;;17.02;;
40198;SDS011;25906;43.536;26.068;2023-12-20T10:07:02;53.20;;;15.82;;
40198;SDS011;25906;43.536;26.068;2023-12-20T10:09:51;43.13;;;19.40;;
40198;SDS011;25906;43.536;26.068;2023-12-20T10:12:41;27.20;;;15.43;;
40198;SDS011;25906;43.536;26.068;2023-12-20T10:15:46;35.50;;;15.17;;
40198;SDS011;25906;43.536;26.068;2023-12-20T10:18:32;22.85;;;11.95;;
40198;SDS011;25906;43.536;26.068;2023-12-20T10:21:18;15.40;;;8.05;;
40198;SDS011;25906;43.536;26.068;2023-12-20T10:24:03;12.80;;;8.60;;
40198;SDS011;25906;43.536;26.068;2023-12-20T10:26:57;17.30;;;9.10;;
40198;SDS011;25906;43.536;26.068;2023-12-20T10:29:48;32.58;;;16.48;;
40198;SDS011;25906;43.536;26.068;2023-12-20T10:32:34;29.65;;;14.15;;
40198;SDS011;25906;43.536;26.068;2023-12-20T10:35:19;22.17;;;12.98;;
40198;SDS011;25906;43.536;26.068;2023-12-20T10:38:05;16.35;;;9.63;;
40198;SDS011;25906;43.536;26.068;2023-12-20T10:40:54;129.88;;;64.18;;
40198;SDS011;25906;43.536;26.068;2023-12-20T10:43:43;43.45;;;23.50;;
40198;SDS011;25906;43.536;26.068;2023-12-20T10:46:30;17.42;;;8.23;;
40198;SDS011;25906;43.536;26.068;2023-12-20T10:49:17;10.07;;;4.50;;
40198;SDS011;25906;43.536;26.068;2023-12-20T10:52:04;3.72;;;2.42;;
40198;SDS011;25906;43.536;26.068;2023-12-20T10:54:51;2.83;;;2.20;;
40198;SDS011;25906;43.536;26.068;2023-12-20T10:57:36;7.63;;;3.25;;
40198;SDS011;25906;43.536;26.068;2023-12-20T11:00:22;10.50;;;6.65;;
40198;SDS011;25906;43.536;26.068;2023-12-20T11:03:08;18.63;;;9.85;;
40198;SDS011;25906;43.536;26.068;2023-12-20T11:05:59;10.63;;;6.38;;
40198;SDS011;25906;43.536;26.068;2023-12-20T11:12:03;10.77;;;6.90;;
40198;SDS011;25906;43.536;26.068;2023-12-20T11:15:00;10.15;;;5.18;;
40198;SDS011;25906;43.536;26.068;2023-12-20T11:17:55;9.70;;;5.60;;
40198;SDS011;25906;43.536;26.068;2023-12-20T11:20:42;9.52;;;5.40;;
40198;SDS011;25906;43.536;26.068;2023-12-20T11:23:27;12.68;;;7.10;;
40198;SDS011;25906;43.536;26.068;2023-12-20T11:26:22;18.85;;;9.85;;
40198;SDS011;25906;43.536;26.068;2023-12-20T11:38:00;10.90;;;5.90;;
40198;SDS011;25906;43.536;26.068;2023-12-20T11:40:47;9.95;;;5.85;;
40198;SDS011;25906;43.536;26.068;2023-12-20T11:43:35;6.65;;;4.55;;
40198;SDS011;25906;43.536;26.068;2023-12-20T11:46:22;6.88;;;4.50;;
40198;SDS011;25906;43.536;26.068;2023-12-20T11:51:53;4.10;;;2.45;;
40198;SDS011;25906;43.536;26.068;2023-12-20T11:54:38;13.40;;;6.22;;
40198;SDS011;25906;43.536;26.068;2023-12-20T11:57:24;14.48;;;7.63;;
40198;SDS011;25906;43.536;26.068;2023-12-20T12:00:10;20.77;;;8.30;;
40198;SDS011;25906;43.536;26.068;2023-12-20T12:02:58;18.08;;;9.07;;
40198;SDS011;25906;43.536;26.068;2023-12-20T12:05:46;80.85;;;9.98;;
40198;SDS011;25906;43.536;26.068;2023-12-20T12:08:33;22.77;;;9.18;;
40198;SDS011;25906;43.536;26.068;2023-12-20T12:11:18;21.55;;;12.48;;
40198;SDS011;25906;43.536;26.068;2023-12-20T12:14:04;25.10;;;14.38;;
40198;SDS011;25906;43.536;26.068;2023-12-20T12:16:51;20.10;;;12.13;;
40198;SDS011;25906;43.536;26.068;2023-12-20T12:19:38;19.83;;;9.82;;
40198;SDS011;25906;43.536;26.068;2023-12-20T12:22:24;13.60;;;7.50;;
40198;SDS011;25906;43.536;26.068;2023-12-20T12:25:12;13.32;;;9.20;;
40198;SDS011;25906;43.536;26.068;2023-12-20T12:27:59;10.93;;;6.88;;
40198;SDS011;25906;43.536;26.068;2023-12-20T12:30:57;55.25;;;20.35;;
40198;SDS011;25906;43.536;26.068;2023-12-20T12:33:43;18.67;;;9.82;;
40198;SDS011;25906;43.536;26.068;2023-12-20T12:36:29;12.35;;;7.93;;
40198;SDS011;25906;43.536;26.068;2023-12-20T12:39:15;13.48;;;6.82;;
40198;SDS011;25906;43.536;26.068;2023-12-20T12:42:02;7.45;;;5.38;;
40198;SDS011;25906;43.536;26.068;2023-12-20T12:44:50;8.02;;;4.15;;
40198;SDS011;25906;43.536;26.068;2023-12-20T12:47:37;10.43;;;3.08;;
40198;SDS011;25906;43.536;26.068;2023-12-20T12:50:24;5.60;;;3.08;;
40198;SDS011;25906;43.536;26.068;2023-12-20T12:53:09;48.22;;;5.30;;
40198;SDS011;25906;43.536;26.068;2023-12-20T12:55:55;15.38;;;5.05;;
40198;SDS011;25906;43.536;26.068;2023-12-20T12:58:41;15.80;;;5.68;;
40198;SDS011;25906;43.536;26.068;2023-12-20T13:04:13;9.05;;;5.25;;
40198;SDS011;25906;43.536;26.068;2023-12-20T13:06:58;13.95;;;6.97;;
40198;SDS011;25906;43.536;26.068;2023-12-20T13:09:44;17.42;;;6.68;;
40198;SDS011;25906;43.536;26.068;2023-12-20T13:12:29;16.23;;;7.78;;
40198;SDS011;25906;43.536;26.068;2023-12-20T13:15:15;6.25;;;4.10;;
40198;SDS011;25906;43.536;26.068;2023-12-20T13:18:01;38.88;;;22.13;;
40198;SDS011;25906;43.536;26.068;2023-12-20T13:20:47;13.13;;;7.68;;
40198;SDS011;25906;43.536;26.068;2023-12-20T13:23:33;16.08;;;5.70;;
40198;SDS011;25906;43.536;26.068;2023-12-20T13:26:18;23.85;;;5.15;;
40198;SDS011;25906;43.536;26.068;2023-12-20T13:29:04;12.13;;;6.18;;
40198;SDS011;25906;43.536;26.068;2023-12-20T13:31:49;12.68;;;6.40;;
40198;SDS011;25906;43.536;26.068;2023-12-20T13:34:34;41.20;;;8.90;;
40198;SDS011;25906;43.536;26.068;2023-12-20T13:37:20;15.23;;;7.25;;
40198;SDS011;25906;43.536;26.068;2023-12-20T13:40:06;40.72;;;7.53;;
40198;SDS011;25906;43.536;26.068;2023-12-20T13:42:52;11.82;;;5.95;;
40198;SDS011;25906;43.536;26.068;2023-12-20T13:45:37;6.32;;;3.70;;
40198;SDS011;25906;43.536;26.068;2023-12-20T13:48:23;7.03;;;3.45;;
40198;SDS011;25906;43.536;26.068;2023-12-20T13:51:08;14.45;;;4.40;;
40198;SDS011;25906;43.536;26.068;2023-12-20T13:53:54;8.57;;;3.08;;
40198;SDS011;25906;43.536;26.068;2023-12-20T13:56:39;7.00;;;2.80;;
40198;SDS011;25906;43.536;26.068;2023-12-20T13:59:25;5.22;;;2.80;;
40198;SDS011;25906;43.536;26.068;2023-12-20T14:02:11;12.88;;;4.50;;
40198;SDS011;25906;43.536;26.068;2023-12-20T14:04:56;9.80;;;5.07;;
40198;SDS011;25906;43.536;26.068;2023-12-20T14:07:42;11.30;;;5.03;;
40198;SDS011;25906;43.536;26.068;2023-12-20T14:10:29;7.53;;;3.30;;
40198;SDS011;25906;43.536;26.068;2023-12-20T14:13:15;15.13;;;5.32;;
40198;SDS011;25906;43.536;26.068;2023-12-20T14:16:00;10.88;;;4.25;;
40198;SDS011;25906;43.536;26.068;2023-12-20T14:18:46;7.22;;;3.28;;
40198;SDS011;25906;43.536;26.068;2023-12-20T14:21:32;3.85;;;2.40;;
40198;SDS011;25906;43.536;26.068;2023-12-20T14:24:18;5.80;;;3.20;;
40198;SDS011;25906;43.536;26.068;2023-12-20T14:27:04;4.93;;;2.35;;
40198;SDS011;25906;43.536;26.068;2023-12-20T14:29:49;3.17;;;2.25;;
40198;SDS011;25906;43.536;26.068;2023-12-20T14:32:35;8.45;;;2.92;;
40198;SDS011;25906;43.536;26.068;2023-12-20T14:35:23;4.55;;;2.72;;
40198;SDS011;25906;43.536;26.068;2023-12-20T14:38:09;3.55;;;2.20;;
40198;SDS011;25906;43.536;26.068;2023-12-20T14:40:54;5.43;;;2.78;;
40198;SDS011;25906;43.536;26.068;2023-12-20T14:43:40;33.42;;;10.02;;
40198;SDS011;25906;43.536;26.068;2023-12-20T14:46:25;9.05;;;3.88;;
40198;SDS011;25906;43.536;26.068;2023-12-20T14:49:11;17.23;;;8.38;;
40198;SDS011;25906;43.536;26.068;2023-12-20T14:51:56;15.27;;;7.78;;
40198;SDS011;25906;43.536;26.068;2023-12-20T14:54:43;20.33;;;8.10;;
40198;SDS011;25906;43.536;26.068;2023-12-20T14:57:28;15.25;;;8.82;;
40198;SDS011;25906;43.536;26.068;2023-12-20T15:03:01;12.30;;;5.38;;
40198;SDS011;25906;43.536;26.068;2023-12-20T15:05:49;16.83;;;7.40;;
40198;SDS011;25906;43.536;26.068;2023-12-20T15:08:35;12.02;;;7.05;;
40198;SDS011;25906;43.536;26.068;2023-12-20T15:11:20;5.78;;;3.63;;
40198;SDS011;25906;43.536;26.068;2023-12-20T15:14:05;15.23;;;5.43;;
40198;SDS011;25906;43.536;26.068;2023-12-20T15:16:51;13.93;;;6.47;;
40198;SDS011;25906;43.536;26.068;2023-12-20T15:19:37;11.35;;;6.38;;
40198;SDS011;25906;43.536;26.068;2023-12-20T15:22:22;72.60;;;37.47;;
40198;SDS011;25906;43.536;26.068;2023-12-20T15:25:08;39.50;;;21.80;;
40198;SDS011;25906;43.536;26.068;2023-12-20T15:27:54;16.45;;;7.97;;
40198;SDS011;25906;43.536;26.068;2023-12-20T15:30:39;8.65;;;4.82;;
40198;SDS011;25906;43.536;26.068;2023-12-20T15:33:25;4.68;;;2.80;;
40198;SDS011;25906;43.536;26.068;2023-12-20T15:36:10;25.38;;;4.35;;
40198;SDS011;25906;43.536;26.068;2023-12-20T15:38:56;13.38;;;5.53;;
40198;SDS011;25906;43.536;26.068;2023-12-20T15:41:42;10.88;;;5.15;;
40198;SDS011;25906;43.536;26.068;2023-12-20T15:47:13;7.63;;;3.72;;
40198;SDS011;25906;43.536;26.068;2023-12-20T15:49:58;5.63;;;3.38;;
40198;SDS011;25906;43.536;26.068;2023-12-20T15:52:44;9.15;;;3.70;;
40198;SDS011;25906;43.536;26.068;2023-12-20T15:55:29;28.25;;;18.25;;
40198;SDS011;25906;43.536;26.068;2023-12-20T15:58:15;33.92;;;18.38;;
40198;SDS011;25906;43.536;26.068;2023-12-20T16:01:00;32.72;;;14.27;;
40198;SDS011;25906;43.536;26.068;2023-12-20T16:03:45;20.15;;;10.25;;
40198;SDS011;25906;43.536;26.068;2023-12-20T16:06:31;18.13;;;8.85;;
40198;SDS011;25906;43.536;26.068;2023-12-20T16:09:16;18.35;;;8.32;;
40198;SDS011;25906;43.536;26.068;2023-12-20T16:12:02;18.70;;;8.55;;
40198;SDS011;25906;43.536;26.068;2023-12-20T16:14:48;10.23;;;6.07;;
40198;SDS011;25906;43.536;26.068;2023-12-20T16:17:33;10.20;;;5.05;;
40198;SDS011;25906;43.536;26.068;2023-12-20T16:20:20;10.20;;;6.10;;
40198;SDS011;25906;43.536;26.068;2023-12-20T16:23:06;11.15;;;6.15;;
40198;SDS011;25906;43.536;26.068;2023-12-20T16:25:52;11.25;;;5.55;;
40198;SDS011;25906;43.536;26.068;2023-12-20T16:28:38;12.38;;;7.25;;
40198;SDS011;25906;43.536;26.068;2023-12-20T16:31:23;12.43;;;6.45;;
40198;SDS011;25906;43.536;26.068;2023-12-20T16:34:09;8.45;;;4.93;;
40198;SDS011;25906;43.536;26.068;2023-12-20T16:36:54;9.32;;;4.90;;
40198;SDS011;25906;43.536;26.068;2023-12-20T16:42:27;15.50;;;7.10;;
40198;SDS011;25906;43.536;26.068;2023-12-20T16:45:12;11.68;;;6.13;;
40198;SDS011;25906;43.536;26.068;2023-12-20T16:47:57;26.27;;;12.40;;
40198;SDS011;25906;43.536;26.068;2023-12-20T16:50:43;34.72;;;16.90;;
40198;SDS011;25906;43.536;26.068;2023-12-20T16:53:29;29.88;;;16.77;;
40198;SDS011;25906;43.536;26.068;2023-12-20T16:56:15;26.65;;;15.82;;
40198;SDS011;25906;43.536;26.068;2023-12-20T16:59:00;28.83;;;14.07;;
40198;SDS011;25906;43.536;26.068;2023-12-20T17:01:46;22.80;;;10.52;;